KHDN/HDN METAR and TAF weather

Enter ICAO airport designator
Station Type Date Time Source
KHDN METAR 2019/02/20 16:56 UTC NOAA

KHDN 201656Z AUTO 12005KT 10SM FEW065 M12/M17 A2971 RMK AO2 SLP139 T11171167 FZRANO


Station Type Date Time Source
KHDN Decoded METAR 2019/02/20 16:56 UTC NOAA

Hayden, Yampa Valley Airport, CO, United States (KHDN) 40-29N 107-13W
Feb 20, 2019 - 11:56 AM EST / 2019.02.20 1656 UTC
Wind: from the ESE (120 degrees) at 6 MPH (5 KT):0
Visibility: 10 mile(s):0
Sky conditions: mostly clear
Temperature: 10.9 F (-11.7 C)
Windchill: 1 F (-17 C):1
Dew Point: 1.9 F (-16.7 C)
Relative Humidity: 66%
Pressure (altimeter): 29.71 in. Hg (1006 hPa)
ob: KHDN 201656Z AUTO 12005KT 10SM FEW065 M12/M17 A2971 RMK AO2 SLP139 T11171167 FZRANO
cycle: 17

Station Type Date Time Source
KHDN TAF 2019/02/20 18:39 UTC NOAA

TAF KHDN 201736Z 2018/2118 VRB05KT P6SM SCT030 BKN060
FM201900 24006KT P6SM BKN030 OVC060
FM210300 11005KT P6SM BKN050 OVC060


Example: see airport list